sensor_id;sensor_type;location;lat;lon;timestamp;pressure;altitude;pressure_sealevel;temperature;humidity
77366;BME280;66430;50.182;11.704;2023-02-26T00:00:20;93903.43;;;-1.33;39.28
77366;BME280;66430;50.182;11.704;2023-02-26T00:02:48;93899.84;;;-1.41;38.63
77366;BME280;66430;50.182;11.704;2023-02-26T00:05:12;93905.30;;;-1.37;39.28
77366;BME280;66430;50.182;11.704;2023-02-26T00:07:38;93908.34;;;-1.21;38.36
77366;BME280;66430;50.182;11.704;2023-02-26T00:10:06;93902.46;;;-0.82;38.20
77366;BME280;66430;50.182;11.704;2023-02-26T00:12:30;93906.07;;;-1.35;38.56
77366;BME280;66430;50.182;11.704;2023-02-26T00:14:55;93911.71;;;-1.18;38.07
77366;BME280;66430;50.182;11.704;2023-02-26T00:17:36;93915.94;;;-1.39;38.39
77366;BME280;66430;50.182;11.704;2023-02-26T00:19:47;93910.50;;;-1.72;38.61
77366;BME280;66430;50.182;11.704;2023-02-26T00:22:12;93911.35;;;-1.52;38.40
77366;BME280;66430;50.182;11.704;2023-02-26T00:24:37;93923.94;;;-0.91;38.14
77366;BME280;66430;50.182;11.704;2023-02-26T00:27:03;93923.75;;;-1.43;38.10
77366;BME280;66430;50.182;11.704;2023-02-26T00:29:29;93925.59;;;-1.12;37.83
77366;BME280;66430;50.182;11.704;2023-02-26T00:31:55;93927.35;;;-1.23;38.19
77366;BME280;66430;50.182;11.704;2023-02-26T00:34:21;93928.79;;;-1.39;38.07
77366;BME280;66430;50.182;11.704;2023-02-26T00:36:51;93932.95;;;-1.06;37.90
77366;BME280;66430;50.182;11.704;2023-02-26T00:39:23;93928.23;;;-1.10;38.03
77366;BME280;66430;50.182;11.704;2023-02-26T00:41:38;93935.15;;;-1.90;38.18
77366;BME280;66430;50.182;11.704;2023-02-26T00:44:04;93932.84;;;-1.30;38.17
77366;BME280;66430;50.182;11.704;2023-02-26T00:46:37;93931.28;;;-1.42;38.49
77366;BME280;66430;50.182;11.704;2023-02-26T00:49:02;93928.27;;;-1.56;38.59
77366;BME280;66430;50.182;11.704;2023-02-26T00:51:26;93929.08;;;-1.26;38.25
77366;BME280;66430;50.182;11.704;2023-02-26T00:53:51;93927.24;;;-1.66;38.34
77366;BME280;66430;50.182;11.704;2023-02-26T00:56:13;93930.69;;;-1.11;38.15
77366;BME280;66430;50.182;11.704;2023-02-26T00:58:37;93929.22;;;-1.50;37.98
77366;BME280;66430;50.182;11.704;2023-02-26T01:01:03;93928.78;;;-1.69;38.04
77366;BME280;66430;50.182;11.704;2023-02-26T01:03:31;93925.15;;;-1.02;37.81
77366;BME280;66430;50.182;11.704;2023-02-26T01:05:54;93925.47;;;-1.40;37.55
77366;BME280;66430;50.182;11.704;2023-02-26T01:08:25;93933.78;;;-1.98;38.77
77366;BME280;66430;50.182;11.704;2023-02-26T01:10:46;93932.24;;;-1.61;38.34
77366;BME280;66430;50.182;11.704;2023-02-26T01:13:12;93924.84;;;-1.28;38.08
77366;BME280;66430;50.182;11.704;2023-02-26T01:15:37;93922.94;;;-1.71;38.31
77366;BME280;66430;50.182;11.704;2023-02-26T01:18:07;93920.10;;;-1.62;38.32
77366;BME280;66430;50.182;11.704;2023-02-26T01:20:33;93921.30;;;-1.54;38.75
77366;BME280;66430;50.182;11.704;2023-02-26T01:23:00;93915.11;;;-1.26;38.30
77366;BME280;66430;50.182;11.704;2023-02-26T01:25:26;93920.47;;;-1.58;38.77
77366;BME280;66430;50.182;11.704;2023-02-26T01:27:46;93921.60;;;-1.76;39.19
77366;BME280;66430;50.182;11.704;2023-02-26T01:30:12;93920.43;;;-2.03;39.80
77366;BME280;66430;50.182;11.704;2023-02-26T01:32:43;93919.19;;;-1.53;39.13
77366;BME280;66430;50.182;11.704;2023-02-26T01:35:11;93913.65;;;-1.28;38.68
77366;BME280;66430;50.182;11.704;2023-02-26T01:37:34;93926.10;;;-1.93;39.74
77366;BME280;66430;50.182;11.704;2023-02-26T01:42:23;93928.07;;;-1.86;40.31
77366;BME280;66430;50.182;11.704;2023-02-26T01:44:55;93933.01;;;-1.75;40.13
77366;BME280;66430;50.182;11.704;2023-02-26T01:47:17;93931.32;;;-1.83;39.54
77366;BME280;66430;50.182;11.704;2023-02-26T01:49:38;93925.13;;;-1.47;39.14
77366;BME280;66430;50.182;11.704;2023-02-26T01:52:04;93922.71;;;-1.50;39.08
77366;BME280;66430;50.182;11.704;2023-02-26T01:54:32;93929.45;;;-1.79;39.60
77366;BME280;66430;50.182;11.704;2023-02-26T01:56:56;93925.66;;;-1.66;39.28
77366;BME280;66430;50.182;11.704;2023-02-26T01:59:20;93926.03;;;-1.67;39.58
77366;BME280;66430;50.182;11.704;2023-02-26T02:01:46;93928.48;;;-1.38;39.00
77366;BME280;66430;50.182;11.704;2023-02-26T02:04:14;93930.67;;;-1.66;39.72
77366;BME280;66430;50.182;11.704;2023-02-26T02:06:39;93929.25;;;-1.47;39.53
77366;BME280;66430;50.182;11.704;2023-02-26T02:09:05;93929.76;;;-1.37;39.44
77366;BME280;66430;50.182;11.704;2023-02-26T02:11:30;93931.36;;;-1.38;39.28
77366;BME280;66430;50.182;11.704;2023-02-26T02:14:04;93926.27;;;-1.54;39.33
77366;BME280;66430;50.182;11.704;2023-02-26T02:16:26;93931.51;;;-1.61;39.81
77366;BME280;66430;50.182;11.704;2023-02-26T02:18:52;93933.04;;;-1.27;39.38
77366;BME280;66430;50.182;11.704;2023-02-26T02:21:25;93938.36;;;-1.68;40.00
77366;BME280;66430;50.182;11.704;2023-02-26T02:23:41;93936.34;;;-1.80;39.96
77366;BME280;66430;50.182;11.704;2023-02-26T02:26:20;93936.79;;;-1.76;39.68
77366;BME280;66430;50.182;11.704;2023-02-26T02:28:37;93946.20;;;-1.42;39.71
77366;BME280;66430;50.182;11.704;2023-02-26T02:30:59;93942.32;;;-1.63;39.64
77366;BME280;66430;50.182;11.704;2023-02-26T02:33:24;93939.52;;;-1.37;39.69
77366;BME280;66430;50.182;11.704;2023-02-26T02:35:51;93949.79;;;-1.42;39.49
77366;BME280;66430;50.182;11.704;2023-02-26T02:38:16;93954.80;;;-1.66;39.51
77366;BME280;66430;50.182;11.704;2023-02-26T02:40:40;93960.02;;;-1.51;40.37
77366;BME280;66430;50.182;11.704;2023-02-26T02:43:07;93958.89;;;-1.80;40.90
77366;BME280;66430;50.182;11.704;2023-02-26T02:45:33;93962.94;;;-1.99;41.37
77366;BME280;66430;50.182;11.704;2023-02-26T02:47:58;93960.97;;;-1.62;41.15
77366;BME280;66430;50.182;11.704;2023-02-26T02:50:26;93970.33;;;-1.48;40.95
77366;BME280;66430;50.182;11.704;2023-02-26T02:52:49;93967.52;;;-1.67;41.61
77366;BME280;66430;50.182;11.704;2023-02-26T02:55:15;93970.29;;;-1.90;41.76
77366;BME280;66430;50.182;11.704;2023-02-26T02:57:41;93968.39;;;-1.85;41.80
77366;BME280;66430;50.182;11.704;2023-02-26T03:00:07;93976.44;;;-1.58;41.56
77366;BME280;66430;50.182;11.704;2023-02-26T03:02:35;93979.19;;;-1.83;41.66
77366;BME280;66430;50.182;11.704;2023-02-26T03:04:54;93976.48;;;-1.36;41.03
77366;BME280;66430;50.182;11.704;2023-02-26T03:07:21;93977.38;;;-1.55;41.26
77366;BME280;66430;50.182;11.704;2023-02-26T03:09:48;93986.53;;;-1.72;41.55
77366;BME280;66430;50.182;11.704;2023-02-26T03:12:12;93986.38;;;-1.85;41.77
77366;BME280;66430;50.182;11.704;2023-02-26T03:14:38;93999.10;;;-1.86;42.06
77366;BME280;66430;50.182;11.704;2023-02-26T03:17:18;93999.92;;;-1.80;42.42
77366;BME280;66430;50.182;11.704;2023-02-26T03:19:35;94002.82;;;-2.08;42.81
77366;BME280;66430;50.182;11.704;2023-02-26T03:22:01;94011.52;;;-2.13;42.37
77366;BME280;66430;50.182;11.704;2023-02-26T03:24:27;94006.57;;;-1.97;42.22
77366;BME280;66430;50.182;11.704;2023-02-26T03:26:50;94006.24;;;-1.55;41.15
77366;BME280;66430;50.182;11.704;2023-02-26T03:29:16;94010.93;;;-2.17;41.32
77366;BME280;66430;50.182;11.704;2023-02-26T03:31:44;94013.32;;;-1.23;40.68
77366;BME280;66430;50.182;11.704;2023-02-26T03:34:09;94021.81;;;-1.52;41.03
77366;BME280;66430;50.182;11.704;2023-02-26T03:36:31;94021.05;;;-1.35;41.32
77366;BME280;66430;50.182;11.704;2023-02-26T03:39:03;94028.07;;;-1.45;41.17
77366;BME280;66430;50.182;11.704;2023-02-26T03:41:26;94021.70;;;-1.40;41.06
77366;BME280;66430;50.182;11.704;2023-02-26T03:43:50;94021.55;;;-1.77;41.09
77366;BME280;66430;50.182;11.704;2023-02-26T03:46:15;94025.98;;;-1.87;41.46
77366;BME280;66430;50.182;11.704;2023-02-26T03:48:37;94023.97;;;-1.87;41.32
77366;BME280;66430;50.182;11.704;2023-02-26T03:51:06;94029.83;;;-1.98;41.61
77366;BME280;66430;50.182;11.704;2023-02-26T03:53:32;94030.29;;;-1.29;41.03
77366;BME280;66430;50.182;11.704;2023-02-26T03:55:59;94034.74;;;-1.36;40.85
77366;BME280;66430;50.182;11.704;2023-02-26T03:58:21;94038.55;;;-1.06;40.82
77366;BME280;66430;50.182;11.704;2023-02-26T04:00:54;94044.76;;;-1.57;41.84
77366;BME280;66430;50.182;11.704;2023-02-26T04:03:16;94052.35;;;-1.80;42.20
77366;BME280;66430;50.182;11.704;2023-02-26T04:05:40;94049.60;;;-1.61;42.05
77366;BME280;66430;50.182;11.704;2023-02-26T04:08:03;94054.46;;;-1.52;41.53
77366;BME280;66430;50.182;11.704;2023-02-26T04:10:33;94052.75;;;-1.16;41.16
77366;BME280;66430;50.182;11.704;2023-02-26T04:12:58;94055.55;;;-1.03;41.11
77366;BME280;66430;50.182;11.704;2023-02-26T04:15:21;94054.94;;;-1.74;41.37
77366;BME280;66430;50.182;11.704;2023-02-26T04:17:46;94058.15;;;-1.71;41.75
77366;BME280;66430;50.182;11.704;2023-02-26T04:20:12;94061.81;;;-1.60;41.66
77366;BME280;66430;50.182;11.704;2023-02-26T04:22:37;94067.10;;;-1.60;42.16
77366;BME280;66430;50.182;11.704;2023-02-26T04:25:04;94077.30;;;-1.56;41.72
77366;BME280;66430;50.182;11.704;2023-02-26T04:27:30;94069.06;;;-1.85;42.10
77366;BME280;66430;50.182;11.704;2023-02-26T04:29:55;94072.50;;;-1.91;41.99
77366;BME280;66430;50.182;11.704;2023-02-26T04:32:21;94077.84;;;-1.87;41.83
77366;BME280;66430;50.182;11.704;2023-02-26T04:34:50;94078.05;;;-1.18;41.07
77366;BME280;66430;50.182;11.704;2023-02-26T04:37:12;94073.06;;;-1.72;41.20
77366;BME280;66430;50.182;11.704;2023-02-26T04:39:37;94081.98;;;-1.29;41.27
77366;BME280;66430;50.182;11.704;2023-02-26T04:42:03;94084.14;;;-1.35;41.07
77366;BME280;66430;50.182;11.704;2023-02-26T04:44:29;94092.38;;;-1.78;42.07
77366;BME280;66430;50.182;11.704;2023-02-26T04:46:55;94091.38;;;-1.62;42.19
77366;BME280;66430;50.182;11.704;2023-02-26T04:49:20;94095.64;;;-2.03;41.97
77366;BME280;66430;50.182;11.704;2023-02-26T04:51:48;94095.28;;;-1.36;41.62
77366;BME280;66430;50.182;11.704;2023-02-26T04:54:12;94095.39;;;-0.86;41.20
77366;BME280;66430;50.182;11.704;2023-02-26T04:56:37;94102.76;;;-1.11;41.15
77366;BME280;66430;50.182;11.704;2023-02-26T04:59:04;94100.09;;;-1.02;41.08
77366;BME280;66430;50.182;11.704;2023-02-26T05:01:30;94112.13;;;-1.11;41.77
77366;BME280;66430;50.182;11.704;2023-02-26T05:03:54;94111.52;;;-1.21;41.33
77366;BME280;66430;50.182;11.704;2023-02-26T05:06:20;94118.57;;;-1.20;41.23
77366;BME280;66430;50.182;11.704;2023-02-26T05:08:46;94119.49;;;-1.36;41.26
77366;BME280;66430;50.182;11.704;2023-02-26T05:11:12;94125.96;;;-1.48;42.10
77366;BME280;66430;50.182;11.704;2023-02-26T05:13:38;94121.41;;;-1.01;41.73
77366;BME280;66430;50.182;11.704;2023-02-26T05:16:05;94129.63;;;-1.34;41.64
77366;BME280;66430;50.182;11.704;2023-02-26T05:18:29;94133.25;;;-1.51;41.87
77366;BME280;66430;50.182;11.704;2023-02-26T05:20:55;94131.03;;;-1.14;42.09
77366;BME280;66430;50.182;11.704;2023-02-26T05:23:21;94129.19;;;-1.87;42.92
77366;BME280;66430;50.182;11.704;2023-02-26T05:25:46;94134.28;;;-1.62;43.20
77366;BME280;66430;50.182;11.704;2023-02-26T05:28:13;94134.84;;;-1.83;43.18
77366;BME280;66430;50.182;11.704;2023-02-26T05:30:38;94136.22;;;-1.35;42.39
77366;BME280;66430;50.182;11.704;2023-02-26T05:33:03;94142.15;;;-1.17;42.10
77366;BME280;66430;50.182;11.704;2023-02-26T05:35:29;94140.60;;;-1.38;42.16
77366;BME280;66430;50.182;11.704;2023-02-26T05:37:55;94143.35;;;-1.15;41.94
77366;BME280;66430;50.182;11.704;2023-02-26T05:40:20;94144.85;;;-1.66;41.91
77366;BME280;66430;50.182;11.704;2023-02-26T05:42:46;94145.59;;;-1.18;41.92
77366;BME280;66430;50.182;11.704;2023-02-26T05:45:12;94153.13;;;-1.08;41.78
77366;BME280;66430;50.182;11.704;2023-02-26T05:47:38;94159.56;;;-1.48;41.78
77366;BME280;66430;50.182;11.704;2023-02-26T05:50:05;94162.77;;;-1.11;42.14
77366;BME280;66430;50.182;11.704;2023-02-26T05:52:29;94163.75;;;-1.24;42.43
77366;BME280;66430;50.182;11.704;2023-02-26T05:54:55;94167.59;;;-1.55;43.16
77366;BME280;66430;50.182;11.704;2023-02-26T05:57:20;94175.53;;;-1.86;43.83
77366;BME280;66430;50.182;11.704;2023-02-26T05:59:47;94175.77;;;-2.06;44.30
77366;BME280;66430;50.182;11.704;2023-02-26T06:02:12;94181.77;;;-1.88;44.03
77366;BME280;66430;50.182;11.704;2023-02-26T06:04:38;94187.29;;;-1.85;44.14
77366;BME280;66430;50.182;11.704;2023-02-26T06:07:03;94198.91;;;-2.16;44.58
77366;BME280;66430;50.182;11.704;2023-02-26T06:09:29;94201.84;;;-1.81;44.16
77366;BME280;66430;50.182;11.704;2023-02-26T06:11:55;94211.54;;;-2.55;45.07
77366;BME280;66430;50.182;11.704;2023-02-26T06:14:21;94221.31;;;-2.42;45.29
77366;BME280;66430;50.182;11.704;2023-02-26T06:16:46;94217.45;;;-2.82;46.25
77366;BME280;66430;50.182;11.704;2023-02-26T06:19:12;94226.98;;;-3.05;47.19
77366;BME280;66430;50.182;11.704;2023-02-26T06:21:38;94228.80;;;-3.21;46.68
77366;BME280;66430;50.182;11.704;2023-02-26T06:24:04;94231.60;;;-3.26;47.51
77366;BME280;66430;50.182;11.704;2023-02-26T06:26:29;94238.40;;;-3.18;47.51
77366;BME280;66430;50.182;11.704;2023-02-26T06:28:55;94235.34;;;-3.24;46.89
77366;BME280;66430;50.182;11.704;2023-02-26T06:31:20;94241.41;;;-3.41;46.84
77366;BME280;66430;50.182;11.704;2023-02-26T06:33:46;94243.84;;;-2.80;46.31
77366;BME280;66430;50.182;11.704;2023-02-26T06:36:13;94240.99;;;-3.06;46.63
77366;BME280;66430;50.182;11.704;2023-02-26T06:38:38;94251.29;;;-4.01;49.26
77366;BME280;66430;50.182;11.704;2023-02-26T06:41:04;94260.67;;;-3.68;49.07
77366;BME280;66430;50.182;11.704;2023-02-26T06:43:29;94266.06;;;-3.57;48.97
77366;BME280;66430;50.182;11.704;2023-02-26T06:45:57;94266.54;;;-2.95;47.52
77366;BME280;66430;50.182;11.704;2023-02-26T06:48:21;94276.01;;;-3.41;47.52
77366;BME280;66430;50.182;11.704;2023-02-26T06:50:47;94272.60;;;-3.23;47.17
77366;BME280;66430;50.182;11.704;2023-02-26T06:53:12;94280.64;;;-2.87;46.86
77366;BME280;66430;50.182;11.704;2023-02-26T06:55:43;94285.32;;;-2.86;47.01
77366;BME280;66430;50.182;11.704;2023-02-26T06:58:04;94291.80;;;-2.72;47.35
77366;BME280;66430;50.182;11.704;2023-02-26T07:00:29;94295.35;;;-3.01;47.36
77366;BME280;66430;50.182;11.704;2023-02-26T07:02:55;94300.39;;;-3.13;47.65
77366;BME280;66430;50.182;11.704;2023-02-26T07:05:21;94304.92;;;-3.09;48.11
77366;BME280;66430;50.182;11.704;2023-02-26T07:07:49;94310.49;;;-3.21;48.46
77366;BME280;66430;50.182;11.704;2023-02-26T07:10:13;94311.36;;;-2.90;47.84
77366;BME280;66430;50.182;11.704;2023-02-26T07:12:38;94321.34;;;-3.04;47.07
77366;BME280;66430;50.182;11.704;2023-02-26T07:15:06;94321.97;;;-3.05;47.72
77366;BME280;66430;50.182;11.704;2023-02-26T07:17:30;94325.60;;;-2.72;47.25
77366;BME280;66430;50.182;11.704;2023-02-26T07:19:55;94324.41;;;-2.73;46.76
77366;BME280;66430;50.182;11.704;2023-02-26T07:22:21;94332.49;;;-2.07;45.47
77366;BME280;66430;50.182;11.704;2023-02-26T07:24:47;94336.20;;;-2.49;46.07
77366;BME280;66430;50.182;11.704;2023-02-26T07:27:13;94335.68;;;-2.61;46.95
77366;BME280;66430;50.182;11.704;2023-02-26T07:29:38;94351.15;;;-2.76;47.50
77366;BME280;66430;50.182;11.704;2023-02-26T07:32:05;94350.50;;;-2.47;46.46
77366;BME280;66430;50.182;11.704;2023-02-26T07:34:30;94347.48;;;-2.27;45.79
77366;BME280;66430;50.182;11.704;2023-02-26T07:36:56;94360.18;;;-2.40;46.97
77366;BME280;66430;50.182;11.704;2023-02-26T07:39:23;94367.68;;;-2.75;46.77
77366;BME280;66430;50.182;11.704;2023-02-26T07:41:47;94360.33;;;-2.80;48.36
77366;BME280;66430;50.182;11.704;2023-02-26T07:44:13;94370.36;;;-3.28;48.96
77366;BME280;66430;50.182;11.704;2023-02-26T07:46:39;94380.19;;;-3.57;49.20
77366;BME280;66430;50.182;11.704;2023-02-26T07:49:04;94376.91;;;-3.14;48.77
77366;BME280;66430;50.182;11.704;2023-02-26T07:51:30;94382.05;;;-3.22;48.40
77366;BME280;66430;50.182;11.704;2023-02-26T07:53:56;94372.27;;;-2.66;47.47
77366;BME280;66430;50.182;11.704;2023-02-26T07:56:22;94383.03;;;-2.47;46.87
77366;BME280;66430;50.182;11.704;2023-02-26T07:58:47;94379.47;;;-2.10;45.90
77366;BME280;66430;50.182;11.704;2023-02-26T08:01:13;94375.05;;;-1.74;44.99
77366;BME280;66430;50.182;11.704;2023-02-26T08:03:39;94382.86;;;-2.54;46.20
77366;BME280;66430;50.182;11.704;2023-02-26T08:06:05;94389.35;;;-1.96;46.00
77366;BME280;66430;50.182;11.704;2023-02-26T08:08:30;94393.31;;;-1.76;45.03
77366;BME280;66430;50.182;11.704;2023-02-26T08:10:58;94401.53;;;-1.71;44.19
77366;BME280;66430;50.182;11.704;2023-02-26T08:13:21;94399.89;;;-1.74;44.13
77366;BME280;66430;50.182;11.704;2023-02-26T08:15:47;94401.41;;;-1.40;43.76
77366;BME280;66430;50.182;11.704;2023-02-26T08:18:13;94405.47;;;-2.00;44.50
77366;BME280;66430;50.182;11.704;2023-02-26T08:20:39;94398.10;;;-1.74;43.94
77366;BME280;66430;50.182;11.704;2023-02-26T08:23:04;94410.45;;;-1.42;43.41
77366;BME280;66430;50.182;11.704;2023-02-26T08:25:30;94425.01;;;-1.57;42.88
77366;BME280;66430;50.182;11.704;2023-02-26T08:27:56;94417.42;;;-1.88;44.42
77366;BME280;66430;50.182;11.704;2023-02-26T08:30:21;94429.92;;;-2.36;45.61
77366;BME280;66430;50.182;11.704;2023-02-26T08:32:47;94434.21;;;-2.53;45.04
77366;BME280;66430;50.182;11.704;2023-02-26T08:35:14;94431.60;;;-2.32;44.73
77366;BME280;66430;50.182;11.704;2023-02-26T08:37:38;94428.70;;;-2.99;45.99
77366;BME280;66430;50.182;11.704;2023-02-26T08:40:06;94448.73;;;-2.91;47.12
77366;BME280;66430;50.182;11.704;2023-02-26T08:42:31;94456.60;;;-3.37;47.03
77366;BME280;66430;50.182;11.704;2023-02-26T08:44:56;94460.74;;;-3.12;47.62
77366;BME280;66430;50.182;11.704;2023-02-26T08:47:21;94443.54;;;-3.69;48.69
77366;BME280;66430;50.182;11.704;2023-02-26T08:49:47;94460.80;;;-3.62;48.81
77366;BME280;66430;50.182;11.704;2023-02-26T08:52:15;94469.65;;;-3.69;48.65
77366;BME280;66430;50.182;11.704;2023-02-26T08:54:39;94473.13;;;-2.87;47.41
77366;BME280;66430;50.182;11.704;2023-02-26T08:57:04;94476.93;;;-2.72;46.27
77366;BME280;66430;50.182;11.704;2023-02-26T08:59:30;94480.83;;;-2.51;45.40
77366;BME280;66430;50.182;11.704;2023-02-26T09:01:56;94492.96;;;-2.54;45.16
77366;BME280;66430;50.182;11.704;2023-02-26T09:04:22;94495.89;;;-2.41;44.73
77366;BME280;66430;50.182;11.704;2023-02-26T09:06:48;94488.41;;;-2.18;44.54
77366;BME280;66430;50.182;11.704;2023-02-26T09:09:13;94496.08;;;-1.80;44.22
77366;BME280;66430;50.182;11.704;2023-02-26T09:11:39;94490.64;;;-2.77;44.95
77366;BME280;66430;50.182;11.704;2023-02-26T09:14:06;94503.72;;;-2.58;46.47
77366;BME280;66430;50.182;11.704;2023-02-26T09:16:31;94516.09;;;-2.48;45.47
77366;BME280;66430;50.182;11.704;2023-02-26T09:18:56;94515.28;;;-2.48;44.78
77366;BME280;66430;50.182;11.704;2023-02-26T09:21:23;94515.94;;;-3.07;47.04
77366;BME280;66430;50.182;11.704;2023-02-26T09:23:47;94514.84;;;-2.87;46.83
77366;BME280;66430;50.182;11.704;2023-02-26T09:26:13;94534.91;;;-3.58;48.73
77366;BME280;66430;50.182;11.704;2023-02-26T09:28:40;94518.29;;;-3.56;50.04
77366;BME280;66430;50.182;11.704;2023-02-26T09:31:05;94529.48;;;-3.58;49.43
77366;BME280;66430;50.182;11.704;2023-02-26T09:33:30;94515.54;;;-3.10;48.39
77366;BME280;66430;50.182;11.704;2023-02-26T09:35:56;94534.50;;;-3.45;49.58
77366;BME280;66430;50.182;11.704;2023-02-26T09:38:22;94536.70;;;-2.86;47.85
77366;BME280;66430;50.182;11.704;2023-02-26T09:40:51;94538.97;;;-2.19;45.70
77366;BME280;66430;50.182;11.704;2023-02-26T09:43:29;94547.09;;;-2.64;45.40
77366;BME280;66430;50.182;11.704;2023-02-26T09:45:41;94554.60;;;-2.70;45.62
77366;BME280;66430;50.182;11.704;2023-02-26T09:48:06;94564.67;;;-2.15;44.08
77366;BME280;66430;50.182;11.704;2023-02-26T09:50:38;94556.99;;;-1.72;43.42
77366;BME280;66430;50.182;11.704;2023-02-26T09:53:01;94559.52;;;-2.26;44.17
77366;BME280;66430;50.182;11.704;2023-02-26T09:55:27;94565.86;;;-2.40;43.35
77366;BME280;66430;50.182;11.704;2023-02-26T09:57:48;94568.98;;;-2.08;43.18
77366;BME280;66430;50.182;11.704;2023-02-26T10:00:22;94561.39;;;-2.88;45.64
77366;BME280;66430;50.182;11.704;2023-02-26T10:02:45;94568.73;;;-3.02;46.29
77366;BME280;66430;50.182;11.704;2023-02-26T10:05:17;94569.52;;;-3.16;47.16
77366;BME280;66430;50.182;11.704;2023-02-26T10:07:37;94567.14;;;-3.47;47.01
77366;BME280;66430;50.182;11.704;2023-02-26T10:10:06;94576.14;;;-3.36;47.19
77366;BME280;66430;50.182;11.704;2023-02-26T10:12:24;94576.48;;;-2.85;46.64
77366;BME280;66430;50.182;11.704;2023-02-26T10:14:54;94580.59;;;-2.74;45.69
77366;BME280;66430;50.182;11.704;2023-02-26T10:17:19;94589.58;;;-1.93;43.91
77366;BME280;66430;50.182;11.704;2023-02-26T10:19:43;94584.74;;;-1.46;43.15
77366;BME280;66430;50.182;11.704;2023-02-26T10:22:14;94585.25;;;-1.09;42.10
77366;BME280;66430;50.182;11.704;2023-02-26T10:24:36;94598.68;;;-1.05;41.89
77366;BME280;66430;50.182;11.704;2023-02-26T10:27:02;94613.07;;;-0.95;40.26
77366;BME280;66430;50.182;11.704;2023-02-26T10:29:27;94596.68;;;-1.60;41.85
77366;BME280;66430;50.182;11.704;2023-02-26T10:31:58;94601.56;;;-1.79;42.97
77366;BME280;66430;50.182;11.704;2023-02-26T10:34:20;94619.16;;;-1.93;42.01
77366;BME280;66430;50.182;11.704;2023-02-26T10:36:46;94611.02;;;-1.93;43.44
77366;BME280;66430;50.182;11.704;2023-02-26T10:39:14;94609.65;;;-2.14;43.45
77366;BME280;66430;50.182;11.704;2023-02-26T10:41:33;94622.96;;;-1.26;42.34
77366;BME280;66430;50.182;11.704;2023-02-26T10:44:04;94622.58;;;-1.51;41.08
77366;BME280;66430;50.182;11.704;2023-02-26T10:48:59;94626.85;;;-2.06;42.66
77366;BME280;66430;50.182;11.704;2023-02-26T10:51:16;94639.56;;;-2.61;44.41
77366;BME280;66430;50.182;11.704;2023-02-26T10:53:42;94622.79;;;-2.90;45.54
77366;BME280;66430;50.182;11.704;2023-02-26T10:56:08;94626.76;;;-2.24;44.29
77366;BME280;66430;50.182;11.704;2023-02-26T10:58:31;94627.38;;;-2.54;43.82
77366;BME280;66430;50.182;11.704;2023-02-26T11:00:56;94627.70;;;-2.30;43.42
77366;BME280;66430;50.182;11.704;2023-02-26T11:03:29;94632.28;;;-2.64;43.54
77366;BME280;66430;50.182;11.704;2023-02-26T11:05:47;94637.68;;;-1.26;41.92
77366;BME280;66430;50.182;11.704;2023-02-26T11:08:17;94642.25;;;-1.27;41.31
77366;BME280;66430;50.182;11.704;2023-02-26T11:10:43;94640.69;;;-1.47;41.46
77366;BME280;66430;50.182;11.704;2023-02-26T11:13:05;94636.63;;;-1.77;41.73
77366;BME280;66430;50.182;11.704;2023-02-26T11:15:31;94633.93;;;-1.58;40.94
77366;BME280;66430;50.182;11.704;2023-02-26T11:17:58;94646.60;;;-1.43;40.70
77366;BME280;66430;50.182;11.704;2023-02-26T11:20:29;94643.03;;;-1.65;41.21
77366;BME280;66430;50.182;11.704;2023-02-26T11:22:51;94668.64;;;-1.95;41.62
77366;BME280;66430;50.182;11.704;2023-02-26T11:25:17;94648.77;;;-1.89;41.71
77366;BME280;66430;50.182;11.704;2023-02-26T11:27:39;94657.01;;;-1.81;41.64
77366;BME280;66430;50.182;11.704;2023-02-26T11:30:14;94651.95;;;-1.60;39.81
77366;BME280;66430;50.182;11.704;2023-02-26T11:32:33;94656.81;;;-1.39;39.82
77366;BME280;66430;50.182;11.704;2023-02-26T11:34:57;94655.44;;;-1.35;40.46
77366;BME280;66430;50.182;11.704;2023-02-26T11:37:29;94662.36;;;-1.78;40.38
77366;BME280;66430;50.182;11.704;2023-02-26T11:39:49;94660.81;;;-1.37;40.09
77366;BME280;66430;50.182;11.704;2023-02-26T11:42:13;94663.86;;;-1.42;39.79
77366;BME280;66430;50.182;11.704;2023-02-26T11:44:43;94661.93;;;-1.09;39.64
77366;BME280;66430;50.182;11.704;2023-02-26T11:47:11;94655.73;;;-1.46;40.11
77366;BME280;66430;50.182;11.704;2023-02-26T11:49:31;94664.15;;;-1.54;39.69
77366;BME280;66430;50.182;11.704;2023-02-26T11:52:13;94662.79;;;-1.64;39.80
77366;BME280;66430;50.182;11.704;2023-02-26T11:54:26;94658.97;;;-1.09;39.68
77366;BME280;66430;50.182;11.704;2023-02-26T11:56:49;94665.06;;;-1.55;39.56
77366;BME280;66430;50.182;11.704;2023-02-26T11:59:17;94664.54;;;-2.17;40.07
77366;BME280;66430;50.182;11.704;2023-02-26T12:01:41;94669.53;;;-2.15;40.45
77366;BME280;66430;50.182;11.704;2023-02-26T12:04:08;94664.96;;;-2.51;41.14
77366;BME280;66430;50.182;11.704;2023-02-26T12:06:30;94662.49;;;-3.04;42.65
77366;BME280;66430;50.182;11.704;2023-02-26T12:08:56;94654.87;;;-2.97;41.45
77366;BME280;66430;50.182;11.704;2023-02-26T12:11:41;94648.73;;;-3.18;43.34
77366;BME280;66430;50.182;11.704;2023-02-26T12:13:59;94659.50;;;-2.31;42.50
77366;BME280;66430;50.182;11.704;2023-02-26T12:16:19;94673.70;;;-1.49;40.24
77366;BME280;66430;50.182;11.704;2023-02-26T12:18:51;94674.75;;;-0.77;38.91
77366;BME280;66430;50.182;11.704;2023-02-26T12:21:16;94666.20;;;-0.74;37.84
77366;BME280;66430;50.182;11.704;2023-02-26T12:26:09;94665.85;;;-0.40;36.43
77366;BME280;66430;50.182;11.704;2023-02-26T12:28:40;94672.48;;;-0.35;36.13
77366;BME280;66430;50.182;11.704;2023-02-26T12:31:01;94663.26;;;0.09;35.34
77366;BME280;66430;50.182;11.704;2023-02-26T12:33:21;94669.43;;;-0.05;35.92
77366;BME280;66430;50.182;11.704;2023-02-26T12:35:45;94670.66;;;-0.23;36.08
77366;BME280;66430;50.182;11.704;2023-02-26T12:38:14;94665.49;;;-0.14;36.24
77366;BME280;66430;50.182;11.704;2023-02-26T12:40:42;94662.24;;;0.03;36.07
77366;BME280;66430;50.182;11.704;2023-02-26T12:43:01;94661.90;;;0.02;37.44
77366;BME280;66430;50.182;11.704;2023-02-26T12:45:37;94664.26;;;0.06;36.50
77366;BME280;66430;50.182;11.704;2023-02-26T12:48:00;94667.86;;;-0.17;37.19